createdAt,value
2019-05-21T00:00:57.372Z,70.73
2019-05-21T00:03:28.674Z,70.40
2019-05-21T00:06:00.380Z,67.17
2019-05-21T00:08:31.894Z,71.23
2019-05-21T00:11:03.210Z,60.47
2019-05-21T00:13:34.573Z,68.07
2019-05-21T00:16:06.218Z,68.10
2019-05-21T00:18:37.434Z,67.03
2019-05-21T00:21:08.747Z,66.23
2019-05-21T00:23:40.010Z,66.87
2019-05-21T00:26:11.453Z,69.00
2019-05-21T00:28:40.678Z,70.23
2019-05-21T00:32:06.786Z,71.97
2019-05-21T00:35:45.782Z,53.20
2019-05-21T00:39:11.203Z,57.30
2019-05-21T00:42:02.439Z,54.80
2019-05-21T00:44:38.543Z,60.97
2019-05-21T00:47:12.470Z,65.93
2019-05-21T00:49:43.874Z,72.80
2019-05-21T00:52:15.191Z,70.17
2019-05-21T00:54:46.522Z,60.77
2019-05-21T00:57:18.142Z,48.27
2019-05-21T00:59:49.575Z,44.20
2019-05-21T01:02:21.248Z,40.77
2019-05-21T01:05:00.675Z,44.50
2019-05-21T01:07:25.459Z,48.87
2019-05-21T01:09:56.753Z,51.57
2019-05-21T01:12:28.026Z,58.23
2019-05-21T01:14:59.559Z,63.43
2019-05-21T01:17:31.195Z,69.10
2019-05-21T01:20:02.533Z,78.67
2019-05-21T01:22:33.783Z,82.37
2019-05-21T01:25:05.290Z,77.97
2019-05-21T01:27:36.611Z,80.10
2019-05-21T01:30:08.166Z,78.13
2019-05-21T01:32:39.905Z,70.63
2019-05-21T01:35:17.305Z,65.60
2019-05-21T01:37:44.766Z,68.53
2019-05-21T01:40:16.096Z,71.57
2019-05-21T01:42:47.306Z,77.50
2019-05-21T01:45:18.861Z,74.37
2019-05-21T01:47:50.149Z,74.33
2019-05-21T01:50:21.804Z,77.13
2019-05-21T01:52:53.109Z,75.73
2019-05-21T01:55:24.353Z,84.00
2019-05-21T01:57:56.116Z,88.30
2019-05-21T02:00:27.500Z,77.63
2019-05-21T02:02:58.888Z,81.23
2019-05-21T02:05:33.418Z,85.80
2019-05-21T02:08:03.829Z,84.43
2019-05-21T02:10:35.195Z,90.90
2019-05-21T02:13:06.785Z,86.27
2019-05-21T02:15:38.241Z,85.63
2019-05-21T02:18:09.703Z,85.57
2019-05-21T02:20:40.970Z,79.17
2019-05-21T02:23:12.351Z,86.07
2019-05-21T02:25:44.252Z,87.17
2019-05-21T02:28:15.707Z,87.50
2019-05-21T02:30:47.046Z,84.83
2019-05-21T02:33:19.098Z,90.80
2019-05-21T02:35:54.612Z,89.43
2019-05-21T02:38:23.547Z,95.20
2019-05-21T02:40:54.834Z,99.67
2019-05-21T02:43:26.235Z,108.53
2019-05-21T02:45:57.629Z,112.60
2019-05-21T02:48:29.024Z,108.20
2019-05-21T02:51:00.345Z,100.67
2019-05-21T02:53:34.335Z,91.40
2019-05-21T02:56:04.685Z,105.93
2019-05-21T02:58:36.020Z,100.90
2019-05-21T03:01:35.333Z,92.20
2019-05-21T03:04:06.761Z,92.47
2019-05-21T03:06:38.441Z,84.03
2019-05-21T03:09:10.165Z,92.03
2019-05-21T03:11:41.541Z,85.93
2019-05-21T03:14:12.919Z,96.13
2019-05-21T03:16:44.371Z,89.20
2019-05-21T03:19:16.631Z,98.10
2019-05-21T03:21:48.975Z,106.67
2019-05-21T03:24:20.214Z,108.73
2019-05-21T03:26:51.537Z,98.33
2019-05-21T03:29:22.765Z,104.23
2019-05-21T03:31:54.440Z,98.03
2019-05-21T03:34:25.778Z,93.17
2019-05-21T03:36:57.215Z,85.00
2019-05-21T03:39:28.686Z,88.83
2019-05-21T03:42:00.045Z,90.27
2019-05-21T03:44:31.357Z,90.53
2019-05-21T03:47:03.060Z,80.47
2019-05-21T03:49:34.378Z,85.17
2019-05-21T03:52:05.791Z,83.87
2019-05-21T03:54:37.170Z,89.73
2019-05-21T03:57:08.486Z,86.33
2019-05-21T03:59:39.870Z,80.03
2019-05-21T04:02:11.269Z,78.50
2019-05-21T04:04:42.683Z,72.77
2019-05-21T04:07:14.410Z,77.47
2019-05-21T04:09:46.223Z,68.87
2019-05-21T04:12:17.521Z,70.40
2019-05-21T04:14:52.779Z,67.43
2019-05-21T04:17:36.907Z,66.10
2019-05-21T04:20:09.418Z,63.47
2019-05-21T04:22:52.755Z,66.60
2019-05-21T04:25:25.201Z,67.63
2019-05-21T04:27:56.759Z,66.73
2019-05-21T04:30:28.117Z,59.60
2019-05-21T04:32:59.503Z,59.60
2019-05-21T04:35:31.199Z,53.57
2019-05-21T04:38:02.996Z,57.37
2019-05-21T04:40:34.381Z,53.37
2019-05-21T04:43:05.738Z,49.17
2019-05-21T04:45:37.154Z,48.97
2019-05-21T04:48:08.418Z,45.33
2019-05-21T04:50:39.855Z,54.93
2019-05-21T04:53:11.222Z,47.37
2019-05-21T04:55:42.506Z,48.37
2019-05-21T04:58:13.808Z,51.33
2019-05-21T05:00:45.442Z,50.83
2019-05-21T05:03:17.098Z,53.47
2019-05-21T05:05:48.415Z,50.67
2019-05-21T05:08:19.735Z,55.77
2019-05-21T05:10:51.004Z,55.97
2019-05-21T05:13:22.213Z,61.37
2019-05-21T05:15:53.325Z,64.33
2019-05-21T05:18:24.522Z,59.17
2019-05-21T05:20:56.190Z,55.00
2019-05-21T05:23:27.464Z,58.83
2019-05-21T05:25:58.683Z,57.70
2019-05-21T05:28:29.890Z,63.17
2019-05-21T05:31:01.542Z,68.50
2019-05-21T05:33:32.819Z,76.23
2019-05-21T05:36:04.094Z,87.07
2019-05-21T05:38:35.373Z,85.57
2019-05-21T05:41:06.854Z,87.70
2019-05-21T05:43:37.967Z,84.13
2019-05-21T05:46:09.138Z,77.00
2019-05-21T05:48:48.666Z,84.63
2019-05-21T05:51:20.039Z,84.80
2019-05-21T05:53:57.888Z,87.90
2019-05-21T05:56:30.177Z,86.50
2019-05-21T05:59:01.544Z,77.77
2019-05-21T06:01:34.222Z,85.37
2019-05-21T06:04:05.703Z,81.10
2019-05-21T06:06:37.340Z,85.70
2019-05-21T06:09:08.986Z,86.77
2019-05-21T06:11:40.235Z,92.03
2019-05-21T06:14:11.473Z,83.80
2019-05-21T06:16:43.098Z,79.07
2019-05-21T06:19:14.441Z,83.27
2019-05-21T06:21:45.560Z,82.33
2019-05-21T06:24:16.845Z,76.57
2019-05-21T06:26:48.010Z,76.47
2019-05-21T06:29:19.326Z,65.97
2019-05-21T06:31:50.447Z,64.13
2019-05-21T06:34:21.770Z,62.27
2019-05-21T06:36:53.031Z,56.57
2019-05-21T06:39:24.368Z,59.77
2019-05-21T06:41:56.010Z,55.67
2019-05-21T06:44:27.305Z,55.90
2019-05-21T06:46:58.534Z,55.43
2019-05-21T06:49:29.726Z,55.23
2019-05-21T06:52:00.983Z,51.07
2019-05-21T06:54:32.241Z,43.90
2019-05-21T06:57:03.897Z,41.23
2019-05-21T06:59:35.261Z,39.57
2019-05-21T07:02:06.630Z,41.70
2019-05-21T07:04:37.999Z,44.13
2019-05-21T07:07:09.224Z,36.20
2019-05-21T07:09:40.861Z,36.97
2019-05-21T07:12:12.418Z,40.33
2019-05-21T07:14:43.914Z,44.27
2019-05-21T07:17:15.202Z,42.93
2019-05-21T07:19:46.489Z,43.47
2019-05-21T07:22:17.859Z,45.40
2019-05-21T07:24:48.999Z,49.40
2019-05-21T07:27:20.355Z,50.30
2019-05-21T07:29:51.626Z,49.83
2019-05-21T07:32:22.866Z,51.13
2019-05-21T07:34:54.151Z,53.20
2019-05-21T07:37:25.339Z,56.87
2019-05-21T07:39:57.034Z,54.10
2019-05-21T07:42:28.255Z,57.77
2019-05-21T07:45:00.265Z,55.07
2019-05-21T07:47:31.512Z,54.93
2019-05-21T07:50:03.268Z,55.60
2019-05-21T07:52:34.653Z,48.47
2019-05-21T07:55:06.579Z,56.80
2019-05-21T07:57:37.841Z,54.20
2019-05-21T08:00:11.586Z,52.67
2019-05-21T08:02:42.769Z,51.47
2019-05-21T08:05:14.229Z,51.67
2019-05-21T08:07:45.493Z,49.97
2019-05-21T08:10:17.270Z,44.70
2019-05-21T08:12:48.551Z,41.77
2019-05-21T08:15:19.895Z,43.13
2019-05-21T08:17:51.105Z,35.87
2019-05-21T08:20:22.804Z,38.47
2019-05-21T08:22:53.970Z,53.87
2019-05-21T08:25:25.632Z,49.07
2019-05-21T08:27:57.132Z,51.27
2019-05-21T08:30:28.496Z,49.77
2019-05-21T08:32:59.593Z,53.30
2019-05-21T08:35:31.274Z,52.70
2019-05-21T08:38:06.472Z,53.10
2019-05-21T08:40:35.952Z,45.03
2019-05-21T08:43:06.465Z,45.10
2019-05-21T08:45:55.526Z,45.13
2019-05-21T08:48:27.331Z,46.40
2019-05-21T08:50:58.655Z,49.87
2019-05-21T08:53:29.921Z,46.73
2019-05-21T08:56:01.207Z,49.33
2019-05-21T08:58:32.473Z,48.37
2019-05-21T09:01:03.993Z,48.50
2019-05-21T09:03:35.975Z,43.40
2019-05-21T09:06:07.402Z,45.43
2019-05-21T09:08:39.087Z,44.30
2019-05-21T09:11:10.379Z,43.67
2019-05-21T09:13:41.688Z,46.77
2019-05-21T09:16:13.619Z,42.93
2019-05-21T09:18:44.973Z,43.07
2019-05-21T09:21:16.245Z,44.77
2019-05-21T09:23:47.668Z,33.13
2019-05-21T09:26:19.037Z,38.20
2019-05-21T09:28:50.336Z,47.17
2019-05-21T09:31:21.648Z,46.00
2019-05-21T09:33:52.866Z,41.50
2019-05-21T09:36:25.330Z,43.33
2019-05-21T09:38:57.153Z,41.30
2019-05-21T09:41:28.485Z,36.83
2019-05-21T09:44:00.043Z,34.50
2019-05-21T09:46:31.419Z,37.43
2019-05-21T09:49:02.794Z,34.87
2019-05-21T09:51:34.025Z,30.13
2019-05-21T09:54:05.505Z,34.40
2019-05-21T09:56:37.174Z,38.70
2019-05-21T09:59:26.416Z,39.73
2019-05-21T10:02:01.259Z,41.23
2019-05-21T10:04:33.355Z,49.97
2019-05-21T10:07:04.822Z,46.53
2019-05-21T10:09:36.158Z,55.63
2019-05-21T10:12:07.962Z,55.83
2019-05-21T10:14:39.582Z,57.40
2019-05-21T10:17:10.793Z,49.90
2019-05-21T10:19:42.473Z,49.23
2019-05-21T10:22:13.929Z,53.57
2019-05-21T10:24:45.332Z,46.70
2019-05-21T10:27:16.982Z,43.60
2019-05-21T10:29:48.292Z,36.03
2019-05-21T10:32:19.586Z,38.23
2019-05-21T10:34:50.899Z,39.03
2019-05-21T10:37:22.487Z,36.47
2019-05-21T10:39:54.022Z,35.70
2019-05-21T10:42:25.315Z,32.80
2019-05-21T10:44:56.717Z,37.93
2019-05-21T10:47:28.096Z,38.90
2019-05-21T10:49:59.408Z,28.13
2019-05-21T10:52:30.914Z,34.80
2019-05-21T10:55:02.096Z,34.40
2019-05-21T10:57:33.396Z,32.97
2019-05-21T11:00:08.184Z,34.93
2019-05-21T11:02:51.324Z,34.40
2019-05-21T11:05:37.390Z,32.63
2019-05-21T11:08:25.529Z,34.07
2019-05-21T11:10:42.654Z,30.57
2019-05-21T11:13:14.008Z,34.07
2019-05-21T11:15:45.317Z,30.17
2019-05-21T11:18:16.725Z,32.97
2019-05-21T11:20:48.392Z,37.67
2019-05-21T11:23:19.641Z,38.03
2019-05-21T11:25:51.171Z,39.50
2019-05-21T11:28:22.518Z,39.67
2019-05-21T11:30:53.780Z,37.93
2019-05-21T11:33:25.398Z,39.10
2019-05-21T11:35:56.938Z,35.67
2019-05-21T11:38:39.530Z,36.80
2019-05-21T11:41:01.573Z,43.17
2019-05-21T11:43:32.851Z,43.80
2019-05-21T11:46:04.080Z,42.37
2019-05-21T11:48:35.326Z,44.03
2019-05-21T11:51:06.723Z,37.80
2019-05-21T11:53:37.934Z,36.53
2019-05-21T11:56:09.168Z,35.50
2019-05-21T11:58:40.451Z,37.20
2019-05-21T12:01:11.801Z,36.13
2019-05-21T12:03:43.237Z,42.20
2019-05-21T12:06:14.479Z,41.17
2019-05-21T12:08:56.222Z,42.63
2019-05-21T12:11:19.030Z,37.23
2019-05-21T12:13:50.281Z,41.30
2019-05-21T12:16:21.544Z,39.77
2019-05-21T12:18:52.828Z,46.67
2019-05-21T12:21:24.134Z,43.63
2019-05-21T12:23:55.256Z,42.33
2019-05-21T12:26:26.508Z,39.37
2019-05-21T12:28:58.046Z,41.87
2019-05-21T12:31:29.850Z,39.57
2019-05-21T12:34:01.370Z,36.87
2019-05-21T12:36:32.567Z,36.43
2019-05-21T12:39:13.728Z,39.73
2019-05-21T12:41:37.503Z,33.77
2019-05-21T12:44:08.852Z,35.10
2019-05-21T12:46:40.187Z,40.13
2019-05-21T12:49:11.447Z,37.03
2019-05-21T12:51:43.154Z,45.97
2019-05-21T12:54:14.436Z,45.23
2019-05-21T12:56:45.729Z,42.13
2019-05-21T12:59:16.924Z,40.73
2019-05-21T13:01:48.196Z,38.67
2019-05-21T13:04:19.609Z,39.27
2019-05-21T13:06:50.984Z,39.67
2019-05-21T13:09:32.246Z,44.00
2019-05-21T13:11:55.276Z,43.20
2019-05-21T13:14:26.656Z,40.93
2019-05-21T13:16:58.117Z,36.63
2019-05-21T13:19:29.504Z,41.73
2019-05-21T13:22:00.851Z,34.27
2019-05-21T13:24:32.501Z,39.03
2019-05-21T13:27:03.862Z,39.70
2019-05-21T13:29:35.510Z,44.70
2019-05-21T13:32:07.006Z,42.20
2019-05-21T13:34:38.381Z,42.23
2019-05-21T13:37:09.709Z,46.90
2019-05-21T13:39:50.225Z,48.57
2019-05-21T13:42:14.478Z,43.03
2019-05-21T13:44:45.682Z,43.53
2019-05-21T13:47:16.956Z,48.27
2019-05-21T13:49:48.248Z,47.30
2019-05-21T13:52:19.706Z,48.03
2019-05-21T13:54:51.052Z,47.47
2019-05-21T13:57:22.376Z,44.73
2019-05-21T13:59:53.629Z,42.50
2019-05-21T14:02:24.983Z,41.60
2019-05-21T14:04:57.761Z,42.73
2019-05-21T14:07:29.683Z,43.83
2019-05-21T14:10:14.338Z,46.00
2019-05-21T14:12:35.752Z,51.70
2019-05-21T14:15:07.728Z,48.60
2019-05-21T14:17:39.302Z,50.50
2019-05-21T14:20:11.347Z,49.70
2019-05-21T14:22:42.549Z,50.90
2019-05-21T14:25:13.904Z,47.33
2019-05-21T14:27:45.478Z,45.63
2019-05-21T14:30:17.381Z,51.90
2019-05-21T14:32:48.789Z,44.77
2019-05-21T14:35:20.060Z,46.10
2019-05-21T14:37:51.664Z,45.13
2019-05-21T14:40:31.793Z,43.80
2019-05-21T14:43:00.414Z,44.57
2019-05-21T14:45:34.179Z,39.13
2019-05-21T14:48:05.232Z,35.80
2019-05-21T14:50:36.584Z,38.47
2019-05-21T14:53:08.247Z,37.10
2019-05-21T14:55:39.965Z,41.27
2019-05-21T14:58:11.134Z,33.03
2019-05-21T15:00:42.517Z,41.40
2019-05-21T15:03:24.774Z,32.57
2019-05-21T15:05:47.066Z,40.13
2019-05-21T15:08:18.165Z,33.90
2019-05-21T15:10:49.860Z,36.10
2019-05-21T15:13:21.080Z,34.93
2019-05-21T15:15:52.618Z,36.33
2019-05-21T15:18:23.893Z,34.93
2019-05-21T15:21:03.196Z,34.77
2019-05-21T15:23:34.354Z,35.07
2019-05-21T15:26:05.783Z,35.63
2019-05-21T15:28:36.978Z,36.97
2019-05-21T15:31:08.684Z,35.87
2019-05-21T15:33:39.849Z,38.40
2019-05-21T15:36:11.087Z,42.97
2019-05-21T15:38:50.313Z,38.80
2019-05-21T15:41:15.119Z,41.03
2019-05-21T15:43:46.384Z,43.07
2019-05-21T15:46:17.730Z,40.50
2019-05-21T15:48:49.063Z,43.33
2019-05-21T15:51:20.507Z,43.30
2019-05-21T15:53:51.720Z,42.43
2019-05-21T15:56:22.915Z,40.70
2019-05-21T15:58:54.235Z,41.93
2019-05-21T16:01:25.766Z,45.40
2019-05-21T16:03:57.010Z,43.07
2019-05-21T16:06:28.379Z,39.07
2019-05-21T16:08:59.580Z,42.97
2019-05-21T16:11:30.773Z,44.07
2019-05-21T16:14:02.030Z,37.83
2019-05-21T16:16:33.378Z,37.97
2019-05-21T16:19:04.655Z,44.57
2019-05-21T16:21:36.224Z,43.57
2019-05-21T16:24:07.522Z,42.87
2019-05-21T16:26:39.516Z,43.17
2019-05-21T16:29:11.372Z,45.80
2019-05-21T16:31:42.687Z,44.83
2019-05-21T16:34:14.531Z,44.23
2019-05-21T16:36:45.985Z,44.83
2019-05-21T16:39:19.327Z,43.23
2019-05-21T16:41:50.594Z,46.33
2019-05-21T16:44:22.140Z,44.90
2019-05-21T16:46:53.411Z,46.60
2019-05-21T16:49:24.675Z,44.33
2019-05-21T16:51:56.398Z,47.37
2019-05-21T16:54:27.761Z,51.27
2019-05-21T16:56:58.992Z,51.93
2019-05-21T16:59:30.286Z,52.00
2019-05-21T17:02:01.654Z,52.37
2019-05-21T17:04:33.401Z,48.33
2019-05-21T17:07:04.897Z,51.63
2019-05-21T17:09:36.215Z,51.83
2019-05-21T17:12:08.012Z,47.93
2019-05-21T17:14:39.687Z,45.10
2019-05-21T17:17:11.123Z,53.20
2019-05-21T17:19:42.583Z,42.97
2019-05-21T17:22:13.969Z,47.10
2019-05-21T17:24:45.810Z,48.63
2019-05-21T17:27:17.246Z,50.00
2019-05-21T17:29:48.995Z,51.73
2019-05-21T17:32:20.580Z,50.30
2019-05-21T17:34:52.345Z,51.17
2019-05-21T17:37:23.748Z,51.70
2019-05-21T17:39:55.050Z,51.50
2019-05-21T17:42:26.480Z,49.93
2019-05-21T17:44:58.369Z,50.00
2019-05-21T17:47:29.828Z,46.73
2019-05-21T17:50:01.222Z,48.73
2019-05-21T17:52:32.736Z,51.10
2019-05-21T17:55:04.362Z,50.20
2019-05-21T17:57:35.818Z,44.80
2019-05-21T18:00:09.001Z,47.07
2019-05-21T18:02:40.917Z,46.57
2019-05-21T18:05:13.004Z,48.83
2019-05-21T18:07:45.304Z,50.73
2019-05-21T18:10:18.877Z,48.10
2019-05-21T18:12:50.748Z,49.13
2019-05-21T18:15:22.422Z,48.40
2019-05-21T18:17:53.822Z,49.03
2019-05-21T18:20:25.226Z,46.10
2019-05-21T18:22:56.479Z,44.73
2019-05-21T18:25:27.749Z,47.63
2019-05-21T18:27:59.307Z,45.43
2019-05-21T18:30:30.740Z,46.57
2019-05-21T18:33:10.220Z,49.37
2019-05-21T18:35:45.217Z,53.23
2019-05-21T18:38:15.322Z,45.70
2019-05-21T18:40:46.999Z,43.63
2019-05-21T18:43:19.171Z,48.17
2019-05-21T18:45:50.935Z,43.77
2019-05-21T18:48:22.124Z,41.87
2019-05-21T18:50:53.665Z,45.07
2019-05-21T18:53:24.952Z,43.20
2019-05-21T18:55:56.483Z,41.90
2019-05-21T18:58:28.616Z,39.00
2019-05-21T19:00:59.942Z,40.93
2019-05-21T19:03:31.230Z,47.03
2019-05-21T19:06:02.556Z,49.80
2019-05-21T19:08:34.202Z,44.23
2019-05-21T19:11:05.523Z,40.93
2019-05-21T19:13:36.925Z,44.00
2019-05-21T19:16:08.695Z,42.33
2019-05-21T19:18:39.998Z,44.13
2019-05-21T19:21:11.634Z,42.40
2019-05-21T19:23:42.888Z,39.60
2019-05-21T19:26:14.436Z,38.23
2019-05-21T19:28:46.177Z,42.50
2019-05-21T19:31:17.379Z,40.93
2019-05-21T19:33:48.952Z,38.17
2019-05-21T19:36:20.141Z,39.23
2019-05-21T19:38:51.543Z,36.10
2019-05-21T19:41:22.813Z,40.73
2019-05-21T19:43:54.113Z,37.63
2019-05-21T19:46:25.508Z,37.17
2019-05-21T19:48:57.014Z,35.57
2019-05-21T19:51:28.268Z,40.97
2019-05-21T19:53:59.544Z,37.80
2019-05-21T19:56:31.013Z,42.63
2019-05-21T19:59:02.469Z,37.83
2019-05-21T20:01:34.028Z,36.47
2019-05-21T20:04:06.835Z,35.33
2019-05-21T20:06:38.520Z,37.07
2019-05-21T20:09:14.805Z,35.30
2019-05-21T20:11:46.259Z,36.43
2019-05-21T20:14:17.683Z,34.83
2019-05-21T20:16:49.198Z,31.80
2019-05-21T20:19:23.093Z,31.97
2019-05-21T20:21:55.069Z,32.80
2019-05-21T20:24:26.652Z,27.33
2019-05-21T20:26:58.994Z,26.60
2019-05-21T20:29:31.245Z,30.97
2019-05-21T20:32:02.875Z,33.80
2019-05-21T20:34:34.082Z,32.77
2019-05-21T20:37:07.843Z,27.70
2019-05-21T20:39:41.576Z,28.83
2019-05-21T20:42:17.671Z,29.77
2019-05-21T20:44:48.080Z,34.33
2019-05-21T20:47:19.579Z,30.53
2019-05-21T20:49:51.090Z,28.30
2019-05-21T20:52:22.693Z,25.37
2019-05-21T20:54:56.489Z,30.73
2019-05-21T20:57:29.269Z,25.83
2019-05-21T21:00:01.082Z,23.73
2019-05-21T21:02:33.651Z,25.00
2019-05-21T21:05:06.383Z,29.53
2019-05-21T21:07:39.103Z,22.77
2019-05-21T21:10:12.299Z,23.47
2019-05-21T21:12:44.721Z,24.23
2019-05-21T21:15:17.989Z,25.10
2019-05-21T21:17:49.568Z,23.93
2019-05-21T21:20:21.025Z,136.97
2019-05-21T21:22:52.219Z,51.17
2019-05-21T21:25:24.967Z,23.90
2019-05-21T21:27:57.060Z,32.93
2019-05-21T21:30:29.262Z,28.20
2019-05-21T21:33:01.007Z,20.20
2019-05-21T21:35:32.604Z,19.00
2019-05-21T21:38:08.028Z,18.60
2019-05-21T21:40:39.977Z,17.70
2019-05-21T21:43:11.571Z,19.27
2019-05-21T21:45:43.399Z,18.93
2019-05-21T21:48:16.251Z,19.57
2019-05-21T21:50:48.768Z,23.60
2019-05-21T21:53:21.045Z,27.57
2019-05-21T21:55:53.858Z,23.37
2019-05-21T21:58:25.467Z,22.97
2019-05-21T22:01:25.732Z,23.67
2019-05-21T22:04:02.574Z,29.77
2019-05-21T22:06:36.552Z,28.40
2019-05-21T22:09:14.288Z,27.07
2019-05-21T22:11:47.351Z,31.53
2019-05-21T22:14:19.172Z,29.27
2019-05-21T22:16:51.912Z,28.17
2019-05-21T22:19:24.572Z,29.37
2019-05-21T22:21:56.468Z,30.43
2019-05-21T22:24:28.707Z,30.50
2019-05-21T22:27:00.251Z,33.20
2019-05-21T22:29:32.175Z,31.50
2019-05-21T22:32:04.455Z,33.07
2019-05-21T22:34:35.935Z,30.93
2019-05-21T22:37:09.022Z,34.57
2019-05-21T22:39:41.768Z,37.40
2019-05-21T22:42:13.138Z,38.60
2019-05-21T22:44:44.903Z,41.80
2019-05-21T22:47:16.351Z,42.73
2019-05-21T22:49:47.767Z,36.33
2019-05-21T22:52:18.940Z,39.80
2019-05-21T22:54:50.158Z,39.73
2019-05-21T22:57:21.504Z,38.77
2019-05-21T22:59:52.944Z,43.63
2019-05-21T23:02:28.701Z,45.20
2019-05-21T23:04:59.809Z,42.60
2019-05-21T23:07:31.255Z,43.10
2019-05-21T23:10:02.782Z,44.97
2019-05-21T23:12:34.637Z,48.17
2019-05-21T23:15:06.816Z,47.17
2019-05-21T23:17:38.219Z,45.67
2019-05-21T23:20:12.466Z,51.20
2019-05-21T23:22:47.417Z,50.20
2019-05-21T23:25:20.434Z,51.27
2019-05-21T23:27:52.233Z,46.73
2019-05-21T23:30:23.504Z,50.70
2019-05-21T23:32:55.579Z,48.37
2019-05-21T23:35:27.942Z,52.93
2019-05-21T23:38:01.286Z,53.07
2019-05-21T23:40:32.736Z,49.00
2019-05-21T23:43:04.000Z,52.20
2019-05-21T23:45:35.516Z,48.20
2019-05-21T23:48:11.220Z,50.13
2019-05-21T23:50:42.627Z,49.90
2019-05-21T23:53:14.226Z,54.23
2019-05-21T23:55:45.465Z,44.93
2019-05-21T23:58:17.897Z,44.93
